createdAt,value
2022-12-01T00:01:03.859Z,0.04
2022-12-01T00:03:34.156Z,0.04
2022-12-01T00:06:04.789Z,0.04
2022-12-01T00:08:35.512Z,0.04
2022-12-01T00:11:06.217Z,0.04
2022-12-01T00:13:36.779Z,0.04
2022-12-01T00:16:07.566Z,0.04
2022-12-01T00:18:37.926Z,0.04
2022-12-01T00:21:08.393Z,0.04
2022-12-01T00:23:38.705Z,0.04
2022-12-01T00:26:08.946Z,0.04
2022-12-01T00:28:39.544Z,0.04
2022-12-01T00:31:10.114Z,0.04
2022-12-01T00:33:40.885Z,0.04
2022-12-01T00:36:11.245Z,0.04
2022-12-01T00:38:41.372Z,0.04
2022-12-01T00:41:11.527Z,0.04
2022-12-01T00:43:42.109Z,0.04
2022-12-01T00:46:13.016Z,0.04
2022-12-01T00:48:43.398Z,0.04
2022-12-01T00:51:14.188Z,0.04
2022-12-01T00:53:44.523Z,0.04
2022-12-01T00:56:14.811Z,0.04
2022-12-01T00:58:45.453Z,0.04
2022-12-01T01:01:15.891Z,0.04
2022-12-01T01:03:46.317Z,0.04
2022-12-01T01:06:17.100Z,0.04
2022-12-01T01:08:47.724Z,0.04
2022-12-01T01:11:17.956Z,0.04
2022-12-01T01:13:48.270Z,0.04
2022-12-01T01:16:18.965Z,0.04
2022-12-01T01:18:48.925Z,0.04
2022-12-01T01:21:19.579Z,0.04
2022-12-01T01:23:49.626Z,0.04
2022-12-01T01:26:20.437Z,0.04
2022-12-01T01:28:50.749Z,0.04
2022-12-01T01:31:21.871Z,0.04
2022-12-01T01:33:51.962Z,0.04
2022-12-01T01:36:22.961Z,0.04
2022-12-01T01:38:53.343Z,0.04
2022-12-01T01:41:24.316Z,0.04
2022-12-01T01:43:54.969Z,0.04
2022-12-01T01:46:25.520Z,0.04
2022-12-01T01:48:56.143Z,0.04
2022-12-01T01:51:26.644Z,0.04
2022-12-01T01:53:56.638Z,0.04
2022-12-01T01:56:27.517Z,0.04
2022-12-01T01:58:57.646Z,0.04
2022-12-01T02:01:28.238Z,0.05
2022-12-01T02:03:58.307Z,0.05
2022-12-01T02:06:28.477Z,0.05
2022-12-01T02:08:58.659Z,0.05
2022-12-01T02:11:29.037Z,0.05
2022-12-01T02:13:59.070Z,0.05
2022-12-01T02:16:29.851Z,0.05
2022-12-01T02:18:59.959Z,0.05
2022-12-01T02:21:30.223Z,0.05
2022-12-01T02:24:00.687Z,0.05
2022-12-01T02:26:31.088Z,0.05
2022-12-01T02:29:01.374Z,0.05
2022-12-01T02:31:31.437Z,0.05
2022-12-01T02:34:01.839Z,0.05
2022-12-01T02:36:32.268Z,0.05
2022-12-01T02:39:02.719Z,0.05
2022-12-01T02:41:33.528Z,0.05
2022-12-01T02:44:04.237Z,0.05
2022-12-01T02:46:34.651Z,0.05
2022-12-01T02:49:05.185Z,0.05
2022-12-01T02:51:35.765Z,0.05
2022-12-01T02:54:06.068Z,0.05
2022-12-01T02:56:37.032Z,0.05
2022-12-01T02:59:07.011Z,0.05
2022-12-01T03:01:37.166Z,0.06
2022-12-01T03:04:07.353Z,0.06
2022-12-01T03:06:37.916Z,0.06
2022-12-01T03:09:08.128Z,0.06
2022-12-01T03:11:38.872Z,0.06
2022-12-01T03:14:08.716Z,0.06
2022-12-01T03:16:38.873Z,0.06
2022-12-01T03:19:09.156Z,0.06
2022-12-01T03:21:39.865Z,0.06
2022-12-01T03:24:10.202Z,0.06
2022-12-01T03:26:40.967Z,0.06
2022-12-01T03:29:11.450Z,0.06
2022-12-01T03:31:42.397Z,0.06
2022-12-01T03:34:12.443Z,0.06
2022-12-01T03:36:42.925Z,0.06
2022-12-01T03:39:13.163Z,0.06
2022-12-01T03:41:43.379Z,0.06
2022-12-01T03:44:13.850Z,0.06
2022-12-01T03:46:44.913Z,0.06
2022-12-01T03:49:14.964Z,0.06
2022-12-01T03:51:45.090Z,0.06
2022-12-01T03:54:15.122Z,0.06
2022-12-01T03:56:45.969Z,0.06
2022-12-01T03:59:15.972Z,0.06
2022-12-01T04:01:46.683Z,0.07
2022-12-01T04:04:17.427Z,0.07
2022-12-01T04:06:47.770Z,0.07
2022-12-01T04:09:17.916Z,0.07
2022-12-01T04:11:48.826Z,0.07
2022-12-01T04:14:19.163Z,0.07
2022-12-01T04:16:49.801Z,0.07
2022-12-01T04:19:20.277Z,0.07
2022-12-01T04:21:51.032Z,0.07
2022-12-01T04:24:21.232Z,0.07
2022-12-01T04:26:51.354Z,0.07
2022-12-01T04:29:21.398Z,0.07
2022-12-01T04:31:51.765Z,0.07
2022-12-01T04:34:22.228Z,0.08
2022-12-01T04:36:52.265Z,0.08
2022-12-01T04:39:22.876Z,0.08
2022-12-01T04:41:53.337Z,0.08
2022-12-01T04:44:23.847Z,0.08
2022-12-01T04:46:54.025Z,0.08
2022-12-01T04:49:24.012Z,0.08
2022-12-01T04:51:54.094Z,0.08
2022-12-01T04:54:24.205Z,0.08
2022-12-01T04:56:54.728Z,0.07
2022-12-01T04:59:25.368Z,0.07
2022-12-01T05:01:55.717Z,0.07
2022-12-01T05:04:26.081Z,0.07
2022-12-01T05:06:56.960Z,0.08
2022-12-01T05:09:27.387Z,0.08
2022-12-01T05:11:57.932Z,0.07
2022-12-01T05:14:28.653Z,0.08
2022-12-01T05:16:59.149Z,0.08
2022-12-01T05:19:29.531Z,0.08
2022-12-01T05:22:00.103Z,0.07
2022-12-01T05:24:30.986Z,0.08
2022-12-01T05:27:01.385Z,0.08
2022-12-01T05:29:31.935Z,0.08
2022-12-01T05:32:02.511Z,0.08
2022-12-01T05:34:32.683Z,0.08
2022-12-01T05:37:03.316Z,0.08
2022-12-01T05:39:33.649Z,0.08
2022-12-01T05:42:04.419Z,0.08
2022-12-01T05:44:35.294Z,0.08
2022-12-01T05:47:06.057Z,0.08
2022-12-01T05:49:36.935Z,0.08
2022-12-01T05:52:07.363Z,0.08
2022-12-01T05:54:38.231Z,0.07
2022-12-01T05:57:08.874Z,0.07
2022-12-01T05:59:39.191Z,0.07
2022-12-01T06:02:09.372Z,0.07
2022-12-01T06:04:40.097Z,0.08
2022-12-01T06:07:10.704Z,0.08
2022-12-01T06:09:41.428Z,0.08
2022-12-01T06:12:12.215Z,0.08
2022-12-01T06:14:42.944Z,0.08
2022-12-01T06:17:13.121Z,0.08
2022-12-01T06:19:43.268Z,0.08
2022-12-01T06:22:13.295Z,0.08
2022-12-01T06:24:43.805Z,0.08
2022-12-01T06:27:14.407Z,0.08
2022-12-01T06:29:44.637Z,0.08
2022-12-01T06:32:14.899Z,0.07
2022-12-01T06:34:45.487Z,0.07
2022-12-01T06:37:16.093Z,0.07
2022-12-01T06:39:47.111Z,0.08
2022-12-01T06:42:16.967Z,0.08
2022-12-01T06:44:47.537Z,0.07
2022-12-01T06:47:18.448Z,0.08
2022-12-01T06:49:49.110Z,0.08
2022-12-01T06:52:18.873Z,0.07
2022-12-01T06:54:49.520Z,0.07
2022-12-01T06:57:19.795Z,0.07
2022-12-01T06:59:50.563Z,0.07
2022-12-01T07:02:21.176Z,0.07
2022-12-01T07:04:51.060Z,0.07
2022-12-01T07:07:21.344Z,0.07
2022-12-01T07:09:52.074Z,0.07
2022-12-01T07:12:21.951Z,0.07
2022-12-01T07:14:52.589Z,0.07
2022-12-01T07:17:23.357Z,0.07
2022-12-01T07:19:53.872Z,0.06
2022-12-01T07:22:28.139Z,0.06
2022-12-01T07:24:54.766Z,0.06
2022-12-01T07:27:24.848Z,0.06
2022-12-01T07:29:55.700Z,0.07
2022-12-01T07:32:26.210Z,0.06
2022-12-01T07:34:56.807Z,0.06
2022-12-01T07:37:27.520Z,0.06
2022-12-01T07:39:57.833Z,0.06
2022-12-01T07:42:28.221Z,0.06
2022-12-01T07:44:58.933Z,0.06
2022-12-01T07:47:29.756Z,0.06
2022-12-01T07:50:00.545Z,0.06
2022-12-01T07:52:31.253Z,0.06
2022-12-01T07:55:01.827Z,0.06
2022-12-01T07:57:32.263Z,0.06
2022-12-01T08:00:02.878Z,0.07
2022-12-01T08:02:33.422Z,0.07
2022-12-01T08:05:03.447Z,0.07
2022-12-01T08:07:33.978Z,0.07
2022-12-01T08:10:04.469Z,0.07
2022-12-01T08:12:34.639Z,0.07
2022-12-01T08:15:05.460Z,0.07
2022-12-01T08:17:36.148Z,0.07
2022-12-01T08:20:06.543Z,0.07
2022-12-01T08:22:36.850Z,0.07
2022-12-01T08:25:07.676Z,0.07
2022-12-01T08:27:38.429Z,0.07
2022-12-01T08:30:08.739Z,0.07
2022-12-01T08:32:39.469Z,0.07
2022-12-01T08:35:09.462Z,0.07
2022-12-01T08:37:40.014Z,0.07
2022-12-01T08:40:10.114Z,0.06
2022-12-01T08:42:40.998Z,0.06
2022-12-01T08:45:11.308Z,0.07
2022-12-01T08:47:42.010Z,0.07
2022-12-01T08:50:12.576Z,0.06
2022-12-01T08:52:43.453Z,0.06
2022-12-01T08:55:13.623Z,0.06
2022-12-01T08:57:43.732Z,0.06
2022-12-01T09:00:14.521Z,0.06
2022-12-01T09:02:44.645Z,0.06
2022-12-01T09:05:14.730Z,0.06
2022-12-01T09:07:44.967Z,0.06
2022-12-01T09:10:15.195Z,0.06
2022-12-01T09:12:45.555Z,0.06
2022-12-01T09:15:16.327Z,0.06
2022-12-01T09:17:46.808Z,0.06
2022-12-01T09:20:17.688Z,0.06
2022-12-01T09:22:48.557Z,0.06
2022-12-01T09:25:18.806Z,0.06
2022-12-01T09:27:49.183Z,0.05
2022-12-01T09:30:19.469Z,0.06
2022-12-01T09:32:50.146Z,0.06
2022-12-01T09:35:23.389Z,0.06
2022-12-01T09:37:51.070Z,0.05
2022-12-01T09:40:21.581Z,0.06
2022-12-01T09:42:51.954Z,0.05
2022-12-01T09:45:22.567Z,0.05
2022-12-01T09:47:53.080Z,0.05
2022-12-01T09:50:23.942Z,0.05
2022-12-01T09:52:54.459Z,0.05
2022-12-01T09:55:25.286Z,0.05
2022-12-01T09:57:55.587Z,0.05
2022-12-01T10:00:26.303Z,0.05
2022-12-01T10:02:57.161Z,0.05
2022-12-01T10:05:27.347Z,0.05
2022-12-01T10:07:57.596Z,0.05
2022-12-01T10:10:28.171Z,0.06
2022-12-01T10:12:59.012Z,0.06
2022-12-01T10:15:29.045Z,0.05
2022-12-01T10:17:59.886Z,0.06
2022-12-01T10:20:30.706Z,0.05
2022-12-01T10:23:00.915Z,0.05
2022-12-01T10:25:31.382Z,0.06
2022-12-01T10:28:01.869Z,0.06
2022-12-01T10:30:32.489Z,0.05
2022-12-01T10:33:03.294Z,0.05
2022-12-01T10:35:34.058Z,0.05
2022-12-01T10:38:04.583Z,0.05
2022-12-01T10:40:34.847Z,0.05
2022-12-01T10:43:05.244Z,0.05
2022-12-01T10:45:35.705Z,0.06
2022-12-01T10:48:06.395Z,0.06
2022-12-01T10:50:36.620Z,0.05
2022-12-01T10:53:06.656Z,0.05
2022-12-01T10:55:36.735Z,0.05
2022-12-01T10:58:09.388Z,0.05
2022-12-01T11:00:59.210Z,0.05
2022-12-01T11:03:08.595Z,0.05
2022-12-01T11:05:38.699Z,0.05
2022-12-01T11:08:08.933Z,0.06
2022-12-01T11:10:39.100Z,0.06
2022-12-01T11:13:09.309Z,0.06
2022-12-01T11:15:39.890Z,0.05
2022-12-01T11:18:10.296Z,0.05
2022-12-01T11:20:40.635Z,0.06
2022-12-01T11:23:11.056Z,0.06
2022-12-01T11:25:41.214Z,0.06
2022-12-01T11:28:11.792Z,0.07
2022-12-01T11:30:42.027Z,0.07
2022-12-01T11:33:12.449Z,0.06
2022-12-01T11:35:43.054Z,0.07
2022-12-01T11:38:29.298Z,0.07
2022-12-01T11:40:43.460Z,0.06
2022-12-01T11:43:14.277Z,0.06
2022-12-01T11:45:44.287Z,0.06
2022-12-01T11:48:14.449Z,0.06
2022-12-01T11:50:44.665Z,0.06
2022-12-01T11:53:15.400Z,0.07
2022-12-01T11:55:45.621Z,0.06
2022-12-01T11:58:16.265Z,0.07
2022-12-01T12:00:46.552Z,0.07
2022-12-01T12:03:16.790Z,0.07
2022-12-01T12:05:46.778Z,0.07
2022-12-01T12:08:16.991Z,0.06
2022-12-01T12:10:47.580Z,0.07
2022-12-01T12:13:18.141Z,0.07
2022-12-01T12:18:18.973Z,0.07
2022-12-01T12:20:49.727Z,0.07
2022-12-01T12:23:20.063Z,0.08
2022-12-01T12:25:50.644Z,0.08
2022-12-01T12:28:21.066Z,0.08
2022-12-01T12:30:51.957Z,0.08
2022-12-01T12:33:21.987Z,0.08
2022-12-01T12:35:52.340Z,0.08
2022-12-01T12:38:22.543Z,0.08
2022-12-01T12:40:53.171Z,0.07
2022-12-01T12:43:23.778Z,0.07
2022-12-01T12:45:54.500Z,0.07
2022-12-01T12:48:24.755Z,0.07
2022-12-01T12:50:54.860Z,0.08
2022-12-01T12:53:25.590Z,0.08
2022-12-01T12:55:55.770Z,0.09
2022-12-01T12:58:26.222Z,0.09
2022-12-01T13:00:56.877Z,0.09
2022-12-01T13:03:32.276Z,0.09
2022-12-01T13:05:57.307Z,0.08
2022-12-01T13:08:27.326Z,0.09
2022-12-01T13:10:57.876Z,0.1
2022-12-01T13:13:28.616Z,0.11
2022-12-01T13:15:58.983Z,0.09
2022-12-01T13:18:29.379Z,0.1
2022-12-01T13:20:59.668Z,0.1
2022-12-01T13:23:30.187Z,0.09
2022-12-01T13:26:00.652Z,0.08
2022-12-01T13:28:31.495Z,0.08
2022-12-01T13:31:01.844Z,0.08
2022-12-01T13:33:32.638Z,0.08
2022-12-01T13:36:38.090Z,0.08
2022-12-01T13:38:33.627Z,0.1
2022-12-01T13:41:04.292Z,0.09
2022-12-01T13:43:34.984Z,0.09
2022-12-01T13:46:05.244Z,0.09
2022-12-01T13:48:35.685Z,0.11
2022-12-01T13:51:06.447Z,0.1
2022-12-01T13:53:36.574Z,0.11
2022-12-01T13:56:06.932Z,0.11
2022-12-01T13:58:37.403Z,0.1
2022-12-01T14:01:11.331Z,0.1
2022-12-01T14:03:38.784Z,0.1
2022-12-01T14:06:09.236Z,0.11
2022-12-01T14:08:39.798Z,0.12
2022-12-01T14:11:10.529Z,0.12
2022-12-01T14:13:41.094Z,0.12
2022-12-01T14:16:11.481Z,0.1
2022-12-01T14:18:41.604Z,0.1
2022-12-01T14:21:12.161Z,0.09
2022-12-01T14:23:42.775Z,0.1
2022-12-01T14:26:13.175Z,0.1
2022-12-01T14:28:43.442Z,0.1
2022-12-01T14:31:14.162Z,0.09
2022-12-01T14:33:44.595Z,0.1
2022-12-01T14:36:14.578Z,0.1
2022-12-01T14:38:44.759Z,0.1
2022-12-01T14:41:18.281Z,0.09
2022-12-01T14:43:45.119Z,0.09
2022-12-01T14:46:15.968Z,0.09
2022-12-01T14:48:45.925Z,0.09
2022-12-01T14:51:16.091Z,0.1
2022-12-01T14:53:46.737Z,0.09
2022-12-01T14:56:17.286Z,0.09
2022-12-01T14:58:47.944Z,0.09
2022-12-01T15:01:18.786Z,0.09
2022-12-01T15:03:48.903Z,0.09
2022-12-01T15:06:19.056Z,0.09
2022-12-01T15:09:10.575Z,0.09
2022-12-01T15:11:20.243Z,0.09
2022-12-01T15:13:50.871Z,0.09
2022-12-01T15:16:21.340Z,0.08
2022-12-01T15:18:51.281Z,0.08
2022-12-01T15:21:21.937Z,0.08
2022-12-01T15:23:52.609Z,0.08
2022-12-01T15:26:23.113Z,0.07
2022-12-01T15:28:53.525Z,0.08
2022-12-01T15:31:23.944Z,0.08
2022-12-01T15:33:54.335Z,0.08
2022-12-01T15:36:24.900Z,0.08
2022-12-01T15:38:55.555Z,0.08
2022-12-01T15:41:29.913Z,0.08
2022-12-01T15:43:56.958Z,0.08
2022-12-01T15:46:27.108Z,0.09
2022-12-01T15:48:57.205Z,0.09
2022-12-01T15:51:27.488Z,0.09
2022-12-01T15:53:58.040Z,0.08
2022-12-01T15:56:28.858Z,0.08
2022-12-01T15:58:59.872Z,0.08
2022-12-01T16:01:30.187Z,0.09
2022-12-01T16:04:00.294Z,0.08
2022-12-01T16:06:30.731Z,0.09
2022-12-01T16:09:01.610Z,0.08
2022-12-01T16:11:31.531Z,0.09
2022-12-01T16:14:02.012Z,0.08
2022-12-01T16:16:32.739Z,0.09
2022-12-01T16:19:03.136Z,0.09
2022-12-01T16:21:33.512Z,0.1
2022-12-01T16:24:04.127Z,0.1
2022-12-01T16:26:34.584Z,0.11
2022-12-01T16:29:04.609Z,0.12
2022-12-01T16:31:43.343Z,0.12
2022-12-01T16:34:18.638Z,0.13
2022-12-01T16:36:36.021Z,0.13
2022-12-01T16:39:06.384Z,0.14
2022-12-01T16:41:38.608Z,0.15
2022-12-01T16:44:27.480Z,0.16
2022-12-01T16:46:38.415Z,0.16
2022-12-01T16:49:08.793Z,0.15
2022-12-01T16:51:55.494Z,0.16
2022-12-01T16:54:09.826Z,0.15
2022-12-01T16:56:39.854Z,0.14
2022-12-01T16:59:10.029Z,0.15
2022-12-01T17:01:40.957Z,0.12
2022-12-01T17:04:11.167Z,0.13
2022-12-01T17:06:41.388Z,0.14
2022-12-01T17:09:12.043Z,0.14
2022-12-01T17:11:42.561Z,0.14
2022-12-01T17:14:12.602Z,0.14
2022-12-01T17:16:43.284Z,0.14
2022-12-01T17:19:13.350Z,0.14
2022-12-01T17:21:44.051Z,0.15
2022-12-01T17:24:18.833Z,0.14
2022-12-01T17:26:45.193Z,0.13
2022-12-01T17:29:15.642Z,0.13
2022-12-01T17:31:45.945Z,0.15
2022-12-01T17:34:16.565Z,0.14
2022-12-01T17:36:47.124Z,0.13
2022-12-01T17:39:17.612Z,0.13
2022-12-01T17:41:47.979Z,0.15
2022-12-01T17:44:18.367Z,0.16
2022-12-01T17:46:48.672Z,0.15
2022-12-01T17:49:19.192Z,0.15
2022-12-01T17:51:50.083Z,0.14
2022-12-01T17:54:20.069Z,0.13
2022-12-01T17:56:50.646Z,0.13
2022-12-01T17:59:21.109Z,0.14
2022-12-01T18:01:51.301Z,0.13
2022-12-01T18:04:21.562Z,0.15
2022-12-01T18:06:54.298Z,0.14
2022-12-01T18:09:22.566Z,0.15
2022-12-01T18:11:52.798Z,0.18
2022-12-01T18:14:23.436Z,0.19
2022-12-01T18:16:53.595Z,0.17
2022-12-01T18:19:23.861Z,0.16
2022-12-01T18:21:54.508Z,0.16
2022-12-01T18:24:25.177Z,0.17
2022-12-01T18:26:55.853Z,0.15
2022-12-01T18:29:26.448Z,0.17
2022-12-01T18:31:57.245Z,0.17
2022-12-01T18:34:27.874Z,0.17
2022-12-01T18:36:57.994Z,0.16
2022-12-01T18:39:28.915Z,0.15
2022-12-01T18:41:59.038Z,0.16
2022-12-01T18:44:29.058Z,0.16
2022-12-01T18:46:59.276Z,0.16
2022-12-01T18:49:29.469Z,0.15
2022-12-01T18:52:00.038Z,0.15
2022-12-01T18:54:30.034Z,0.16
2022-12-01T18:57:00.737Z,0.16
2022-12-01T18:59:31.165Z,0.16
2022-12-01T19:02:01.977Z,0.16
2022-12-01T19:04:32.326Z,0.15
2022-12-01T19:07:03.205Z,0.17
2022-12-01T19:09:34.062Z,0.17
2022-12-01T19:12:04.980Z,0.16
2022-12-01T19:14:34.995Z,0.15
2022-12-01T19:17:05.222Z,0.19
2022-12-01T19:19:37.593Z,0.2
2022-12-01T19:22:06.416Z,0.22
2022-12-01T19:24:36.523Z,0.23
2022-12-01T19:27:06.780Z,0.24
2022-12-01T19:29:36.949Z,0.25
2022-12-01T19:32:07.483Z,0.23
2022-12-01T19:34:37.639Z,0.22
2022-12-01T19:37:08.221Z,0.24
2022-12-01T19:39:38.866Z,0.22
2022-12-01T19:42:09.356Z,0.22
2022-12-01T19:44:39.705Z,0.23
2022-12-01T19:47:10.685Z,0.2
2022-12-01T19:49:40.903Z,0.21
2022-12-01T19:52:11.161Z,0.22
2022-12-01T19:54:41.734Z,0.22
2022-12-01T19:57:12.076Z,0.22
2022-12-01T19:59:42.809Z,0.28
2022-12-01T20:02:13.713Z,0.26
2022-12-01T20:04:44.289Z,0.23
2022-12-01T20:07:14.541Z,0.29
2022-12-01T20:09:49.798Z,0.32
2022-12-01T20:12:15.525Z,0.31
2022-12-01T20:14:45.960Z,0.25
2022-12-01T20:17:16.830Z,0.25
2022-12-01T20:19:47.299Z,0.31
2022-12-01T20:22:17.974Z,0.31
2022-12-01T20:24:48.784Z,0.26
2022-12-01T20:27:18.428Z,0.22
2022-12-01T20:29:49.276Z,0.23
2022-12-01T20:32:23.326Z,0.23
2022-12-01T20:34:50.388Z,0.32
2022-12-01T20:37:20.591Z,0.28
2022-12-01T20:39:50.968Z,0.3
2022-12-01T20:42:21.599Z,0.31
2022-12-01T20:44:52.477Z,0.29
2022-12-01T20:47:22.894Z,0.31
2022-12-01T20:49:56.945Z,0.33
2022-12-01T20:52:23.639Z,0.31
2022-12-01T20:54:53.802Z,0.29
2022-12-01T20:57:24.375Z,0.27
2022-12-01T20:59:54.775Z,0.28
2022-12-01T21:02:25.627Z,0.28
2022-12-01T21:04:58.965Z,0.35
2022-12-01T21:07:26.612Z,0.42
2022-12-01T21:09:56.665Z,0.34
2022-12-01T21:12:27.533Z,0.35
2022-12-01T21:14:58.053Z,0.29
2022-12-01T21:17:28.321Z,0.26
2022-12-01T21:19:58.395Z,0.26
2022-12-01T21:22:28.631Z,0.29
2022-12-01T21:24:58.883Z,0.29
2022-12-01T21:27:29.361Z,0.28
2022-12-01T21:30:00.003Z,0.29
2022-12-01T21:32:30.409Z,0.33
2022-12-01T21:35:00.560Z,0.39
2022-12-01T21:37:31.166Z,0.35
2022-12-01T21:40:01.501Z,0.31
2022-12-01T21:42:32.309Z,0.3
2022-12-01T21:45:03.042Z,0.32
2022-12-01T21:47:33.827Z,0.33
2022-12-01T21:50:04.486Z,0.32
2022-12-01T21:52:35.069Z,0.31
2022-12-01T21:55:05.540Z,0.3
2022-12-01T21:57:39.859Z,0.3
2022-12-01T22:00:06.547Z,0.3
2022-12-01T22:02:37.182Z,0.3
2022-12-01T22:05:07.964Z,0.32
2022-12-01T22:07:38.511Z,0.36
2022-12-01T22:10:09.387Z,0.35
2022-12-01T22:12:39.666Z,0.34
2022-12-01T22:15:10.019Z,0.34
2022-12-01T22:17:40.670Z,0.42
2022-12-01T22:20:11.521Z,0.41
2022-12-01T22:22:42.243Z,0.39
2022-12-01T22:25:12.589Z,0.38
2022-12-01T22:27:42.614Z,0.42
2022-12-01T22:30:12.977Z,0.41
2022-12-01T22:32:43.256Z,0.42
2022-12-01T22:35:13.256Z,0.44
2022-12-01T22:37:43.275Z,0.46
2022-12-01T22:40:13.361Z,0.43
2022-12-01T22:42:43.636Z,0.44
2022-12-01T22:45:13.912Z,0.43
2022-12-01T22:47:44.575Z,0.39
2022-12-01T22:50:14.900Z,0.45
2022-12-01T22:52:45.425Z,0.44
2022-12-01T22:55:15.754Z,0.43
2022-12-01T22:57:46.178Z,0.44
2022-12-01T23:00:16.796Z,0.42
2022-12-01T23:02:47.452Z,0.41
2022-12-01T23:05:17.761Z,0.44
2022-12-01T23:07:48.468Z,0.48
2022-12-01T23:10:19.247Z,0.41
2022-12-01T23:12:49.364Z,0.48
2022-12-01T23:15:19.704Z,0.45
2022-12-01T23:17:49.931Z,0.42
2022-12-01T23:20:20.185Z,0.42
2022-12-01T23:22:50.568Z,0.48
2022-12-01T23:25:21.131Z,0.42
2022-12-01T23:27:51.286Z,0.43
2022-12-01T23:30:21.836Z,0.45
2022-12-01T23:32:52.385Z,0.43
2022-12-01T23:35:22.812Z,0.39
2022-12-01T23:37:53.130Z,0.37
2022-12-01T23:40:23.855Z,0.37
2022-12-01T23:42:54.333Z,0.33
2022-12-01T23:45:25.022Z,0.36
2022-12-01T23:47:55.630Z,0.38
2022-12-01T23:50:26.030Z,0.37
2022-12-01T23:52:56.113Z,0.35
2022-12-01T23:55:26.684Z,0.38
2022-12-01T23:57:57.518Z,0.49
